Victor, MT (59875)

7:11 AM MST on February 09, 2016 (GMT -0700)
Dutch Hill | | Change Station
CLOSE
Current Station
Personal Weather Station
Location: Hamilton, MT
Elevation: 3668 ft
Nearby Weather Stations

Elev 3668 ft 46.31 °N, 114.18 °W | Updated 46 seconds ago

Clear
Clear
20.7 °F
Feels Like 21 °F
N
0.0
Wind Variable Wind from ESE
Gusts 0.0 mph

Today
High -- | Low -- °F
--% Chance of Precip.
Yesterday
High -- | Low -- °F
Precip. -- in
Pressure 30.54 in
Visibility 2.5 miles
Clouds Few 500 ft
Windchill 21 °F
Dew Point 2 °F
Humidity 43%
Rainfall Not available.
Snow Depth Not available.
7:49 AM 5:52 PM
New Moon, 1% visible
SPECI KMSO 091405Z 00000KT 2 1/2SM BR FEW005 M07/M08 A3054 RMK AO2 VIS 1 1/2V4 T10671083
Pressure 30.54 in
Visibility 2.5 miles
Clouds Few 500 ft
Windchill 21 °F
Dew Point 2 °F
Humidity 43%
Rainfall Not available.
Snow Depth Not available.
7:49 AM 5:52 PM
New Moon, 1% visible
SPECI KMSO 091405Z 00000KT 2 1/2SM BR FEW005 M07/M08 A3054 RMK AO2 VIS 1 1/2V4 T10671083

10-Day Weather Forecast

Almanac

Astronomy

Feb. 09, 2016 Rise Set
Actual Time
Civil Twilight
Nautical Twilight
Astronomical Twilight
Moon
Length of Visible Light
Length of Day
Tomorrow will be .
, % of the Moon is Illuminated

Today's Extremes

State Highs State Lows

Community

WunderPhotos

Upload Photos

1,891,598 photos uploaded!

WunderBlog® & News

Nearby

Air Quality

  Air Quality AQ Index Pollutant
Not available.

Snow Depth

Station Depth Elevation

Earthquake Activity

City Distance Mag. Time & Date
Minimum magnitude displayed is 2.5.

Coastal Water Temperatures

Place Temperature

Stations

Nearby Weather Stations

Station Location Temp. Windchill Dew Point Humidity Wind Precip. Elev Updated Type
                   

Watches & Warnings

There are currently no watches in effect.